Terminal Aerodrome Forecast
Issued by NWS St Louis, MO

Home | Current Version | Previous Version | Text Only | Print | Product List | Glossary On
Versions: 1 2 3 4 5 6 7 8 9 10 11 12 13 14 15 16 17 18 19 20 21 22 23 24 25
000
FTUS43 KLSX 220257 AAA
TAFSTL
TAF AMD
KSTL 220257Z 2203/2306 06010KT P6SM VCSH OVC060
     FM220500 07012G18KT P6SM -RA OVC045
     FM221000 06012G18KT 5SM -RA BR OVC030
     FM221400 03013G21KT 4SM -RA BR OVC015
     FM222200 03011G19KT P6SM OVC040=

USA.gov is the U.S. government's official web portal to all federal, state and local government web resources and services.